sensor_id;sensor_type;location;lat;lon;timestamp;pressure;altitude;pressure_sealevel;temperature;humidity
43298;BME280;28892;55.640;37.532;2023-03-09T00:01:29;96695.94;;;-0.12;62.96
43298;BME280;28892;55.640;37.532;2023-03-09T00:03:56;96697.28;;;-0.17;62.90
43298;BME280;28892;55.640;37.532;2023-03-09T00:06:22;96698.56;;;-0.12;62.32
43298;BME280;28892;55.640;37.532;2023-03-09T00:08:48;96705.06;;;-0.08;62.89
43298;BME280;28892;55.640;37.532;2023-03-09T00:11:15;96705.63;;;-0.45;62.79
43298;BME280;28892;55.640;37.532;2023-03-09T00:13:41;96705.22;;;-0.33;62.91
43298;BME280;28892;55.640;37.532;2023-03-09T00:16:14;96696.47;;;-0.17;63.00
43298;BME280;28892;55.640;37.532;2023-03-09T00:18:40;96713.56;;;-0.61;63.45
43298;BME280;28892;55.640;37.532;2023-03-09T00:21:06;96699.47;;;-0.99;64.52
43298;BME280;28892;55.640;37.532;2023-03-09T00:23:33;96708.16;;;-1.15;65.30
43298;BME280;28892;55.640;37.532;2023-03-09T00:26:05;96717.88;;;-0.77;65.13
43298;BME280;28892;55.640;37.532;2023-03-09T00:28:31;96708.97;;;-1.14;65.15
43298;BME280;28892;55.640;37.532;2023-03-09T00:31:06;96706.41;;;-1.22;65.56
43298;BME280;28892;55.640;37.532;2023-03-09T00:33:35;96709.66;;;-0.89;65.13
43298;BME280;28892;55.640;37.532;2023-03-09T00:36:00;96709.47;;;-0.55;63.95
43298;BME280;28892;55.640;37.532;2023-03-09T00:38:28;96706.72;;;-0.86;64.30
43298;BME280;28892;55.640;37.532;2023-03-09T00:40:53;96704.09;;;-0.54;63.69
43298;BME280;28892;55.640;37.532;2023-03-09T00:43:19;96715.72;;;-0.41;63.29
43298;BME280;28892;55.640;37.532;2023-03-09T00:45:45;96718.03;;;-0.23;63.00
43298;BME280;28892;55.640;37.532;2023-03-09T00:48:11;96712.75;;;-0.15;62.55
43298;BME280;28892;55.640;37.532;2023-03-09T00:50:36;96715.75;;;-0.03;62.46
43298;BME280;28892;55.640;37.532;2023-03-09T00:53:02;96713.50;;;-0.76;63.58
43298;BME280;28892;55.640;37.532;2023-03-09T00:55:29;96718.47;;;-0.66;63.78
43298;BME280;28892;55.640;37.532;2023-03-09T00:57:55;96718.31;;;-0.65;63.46
43298;BME280;28892;55.640;37.532;2023-03-09T01:00:21;96716.00;;;-0.60;63.29
43298;BME280;28892;55.640;37.532;2023-03-09T01:02:47;96706.88;;;-0.32;62.77
43298;BME280;28892;55.640;37.532;2023-03-09T01:05:12;96711.78;;;-0.37;62.45
43298;BME280;28892;55.640;37.532;2023-03-09T01:07:38;96704.91;;;-0.30;62.58
43298;BME280;28892;55.640;37.532;2023-03-09T01:10:04;96699.84;;;-0.55;62.93
43298;BME280;28892;55.640;37.532;2023-03-09T01:12:30;96718.63;;;-0.91;63.92
43298;BME280;28892;55.640;37.532;2023-03-09T01:14:56;96735.81;;;-0.82;64.25
43298;BME280;28892;55.640;37.532;2023-03-09T01:17:23;96723.59;;;-0.50;63.75
43298;BME280;28892;55.640;37.532;2023-03-09T01:19:49;96730.25;;;-0.47;63.07
43298;BME280;28892;55.640;37.532;2023-03-09T01:22:15;96726.31;;;-0.43;62.84
43298;BME280;28892;55.640;37.532;2023-03-09T01:24:42;96720.28;;;-0.44;63.25
43298;BME280;28892;55.640;37.532;2023-03-09T01:27:08;96713.97;;;-0.49;62.77
43298;BME280;28892;55.640;37.532;2023-03-09T01:29:35;96728.25;;;-0.92;63.74
43298;BME280;28892;55.640;37.532;2023-03-09T01:32:01;96724.97;;;-0.94;63.72
43298;BME280;28892;55.640;37.532;2023-03-09T01:34:27;96721.00;;;-1.70;66.15
43298;BME280;28892;55.640;37.532;2023-03-09T01:36:53;96729.28;;;-1.66;66.20
43298;BME280;28892;55.640;37.532;2023-03-09T01:39:19;96722.31;;;-1.82;66.92
43298;BME280;28892;55.640;37.532;2023-03-09T01:41:45;96719.38;;;-1.79;67.74
43298;BME280;28892;55.640;37.532;2023-03-09T01:44:12;96729.63;;;-1.77;66.73
43298;BME280;28892;55.640;37.532;2023-03-09T01:46:46;96714.56;;;-1.34;66.21
43298;BME280;28892;55.640;37.532;2023-03-09T01:52:12;96726.19;;;-0.50;63.77
43298;BME280;28892;55.640;37.532;2023-03-09T02:00:31;96721.09;;;-0.98;62.43
43298;BME280;28892;55.640;37.532;2023-03-09T02:03:08;96697.81;;;-1.31;63.51
43298;BME280;28892;55.640;37.532;2023-03-09T02:08:27;96702.91;;;-1.38;63.62
43298;BME280;28892;55.640;37.532;2023-03-09T02:13:35;96731.56;;;-1.15;63.13
43298;BME280;28892;55.640;37.532;2023-03-09T02:16:03;96729.78;;;-1.14;62.77
43298;BME280;28892;55.640;37.532;2023-03-09T02:18:29;96720.72;;;-1.18;63.06
43298;BME280;28892;55.640;37.532;2023-03-09T02:29:00;96747.63;;;-1.03;62.94
43298;BME280;28892;55.640;37.532;2023-03-09T02:31:27;96749.47;;;-1.11;62.38
43298;BME280;28892;55.640;37.532;2023-03-09T02:33:53;96749.94;;;-1.08;62.55
43298;BME280;28892;55.640;37.532;2023-03-09T02:36:22;96755.78;;;-1.06;62.43
43298;BME280;28892;55.640;37.532;2023-03-09T02:38:54;96753.94;;;-0.97;62.26
43298;BME280;28892;55.640;37.532;2023-03-09T02:41:20;96762.22;;;-0.93;62.09
43298;BME280;28892;55.640;37.532;2023-03-09T02:43:49;96751.13;;;-0.87;61.90
43298;BME280;28892;55.640;37.532;2023-03-09T02:46:16;96759.78;;;-0.95;61.93
43298;BME280;28892;55.640;37.532;2023-03-09T02:48:43;96768.47;;;-1.11;62.32
43298;BME280;28892;55.640;37.532;2023-03-09T02:51:08;96770.75;;;-1.08;62.16
43298;BME280;28892;55.640;37.532;2023-03-09T02:53:35;96771.88;;;-1.02;62.03
43298;BME280;28892;55.640;37.532;2023-03-09T02:56:01;96769.16;;;-1.25;62.61
43298;BME280;28892;55.640;37.532;2023-03-09T02:58:30;96781.69;;;-1.21;62.30
43298;BME280;28892;55.640;37.532;2023-03-09T03:00:55;96775.16;;;-1.25;61.91
43298;BME280;28892;55.640;37.532;2023-03-09T03:03:22;96780.69;;;-1.11;61.89
43298;BME280;28892;55.640;37.532;2023-03-09T03:05:51;96767.81;;;-1.05;61.43
43298;BME280;28892;55.640;37.532;2023-03-09T03:08:17;96749.28;;;-1.10;61.21
43298;BME280;28892;55.640;37.532;2023-03-09T03:10:43;96776.22;;;-1.59;61.24
43298;BME280;28892;55.640;37.532;2023-03-09T03:13:10;96763.53;;;-1.46;62.16
43298;BME280;28892;55.640;37.532;2023-03-09T03:15:36;96768.84;;;-1.31;61.73
43298;BME280;28892;55.640;37.532;2023-03-09T03:18:02;96762.97;;;-1.16;60.97
43298;BME280;28892;55.640;37.532;2023-03-09T03:20:28;96779.06;;;-1.21;60.71
43298;BME280;28892;55.640;37.532;2023-03-09T03:22:55;96776.34;;;-1.28;60.80
43298;BME280;28892;55.640;37.532;2023-03-09T03:25:27;96765.56;;;-1.16;60.45
43298;BME280;28892;55.640;37.532;2023-03-09T03:27:57;96773.47;;;-1.58;61.34
43298;BME280;28892;55.640;37.532;2023-03-09T03:30:23;96782.84;;;-1.32;61.06
43298;BME280;28892;55.640;37.532;2023-03-09T03:32:51;96770.44;;;-1.21;60.80
43298;BME280;28892;55.640;37.532;2023-03-09T03:35:21;96769.66;;;-1.30;60.89
43298;BME280;28892;55.640;37.532;2023-03-09T03:37:46;96773.41;;;-1.24;60.83
43298;BME280;28892;55.640;37.532;2023-03-09T03:40:17;96774.88;;;-1.30;60.45
43298;BME280;28892;55.640;37.532;2023-03-09T03:42:48;96781.50;;;-1.19;60.91
43298;BME280;28892;55.640;37.532;2023-03-09T03:45:15;96773.97;;;-1.54;60.83
43298;BME280;28892;55.640;37.532;2023-03-09T03:48:18;96788.47;;;-1.11;61.18
43298;BME280;28892;55.640;37.532;2023-03-09T03:50:57;96782.97;;;-1.17;60.61
43298;BME280;28892;55.640;37.532;2023-03-09T03:53:23;96796.19;;;-1.43;60.55
43298;BME280;28892;55.640;37.532;2023-03-09T03:55:50;96790.53;;;-2.13;62.57
43298;BME280;28892;55.640;37.532;2023-03-09T03:58:17;96780.16;;;-1.88;62.17
43298;BME280;28892;55.640;37.532;2023-03-09T04:00:43;96799.81;;;-1.61;61.04
43298;BME280;28892;55.640;37.532;2023-03-09T04:03:16;96797.84;;;-1.67;61.13
43298;BME280;28892;55.640;37.532;2023-03-09T04:05:45;96797.72;;;-1.99;62.28
43298;BME280;28892;55.640;37.532;2023-03-09T04:08:14;96805.34;;;-1.80;62.03
43298;BME280;28892;55.640;37.532;2023-03-09T04:10:43;96803.53;;;-1.55;61.30
43298;BME280;28892;55.640;37.532;2023-03-09T04:13:11;96795.75;;;-1.55;60.59
43298;BME280;28892;55.640;37.532;2023-03-09T04:15:38;96803.19;;;-1.60;61.10
43298;BME280;28892;55.640;37.532;2023-03-09T04:18:04;96790.53;;;-1.63;60.73
43298;BME280;28892;55.640;37.532;2023-03-09T04:20:38;96791.81;;;-1.34;60.59
43298;BME280;28892;55.640;37.532;2023-03-09T04:23:40;96798.00;;;-1.52;59.85
43298;BME280;28892;55.640;37.532;2023-03-09T04:26:10;96800.59;;;-1.35;60.44
43298;BME280;28892;55.640;37.532;2023-03-09T04:28:58;96804.63;;;-1.33;60.27
43298;BME280;28892;55.640;37.532;2023-03-09T04:31:25;96801.38;;;-1.27;59.98
43298;BME280;28892;55.640;37.532;2023-03-09T04:33:50;96816.47;;;-1.22;59.78
43298;BME280;28892;55.640;37.532;2023-03-09T04:36:19;96821.59;;;-1.62;60.59
43298;BME280;28892;55.640;37.532;2023-03-09T04:38:47;96840.56;;;-1.61;60.66
43298;BME280;28892;55.640;37.532;2023-03-09T04:41:14;96829.34;;;-1.45;60.23
43298;BME280;28892;55.640;37.532;2023-03-09T04:43:44;96829.50;;;-1.47;60.35
43298;BME280;28892;55.640;37.532;2023-03-09T04:46:10;96817.28;;;-1.21;60.07
43298;BME280;28892;55.640;37.532;2023-03-09T04:48:36;96822.31;;;-1.11;59.52
43298;BME280;28892;55.640;37.532;2023-03-09T04:51:14;96848.13;;;-0.93;58.96
43298;BME280;28892;55.640;37.532;2023-03-09T04:53:41;96857.97;;;-1.62;60.00
43298;BME280;28892;55.640;37.532;2023-03-09T04:56:11;96859.56;;;-1.28;60.22
43298;BME280;28892;55.640;37.532;2023-03-09T04:58:47;96823.44;;;-1.06;59.42
43298;BME280;28892;55.640;37.532;2023-03-09T05:01:17;96847.50;;;-1.04;58.81
43298;BME280;28892;55.640;37.532;2023-03-09T05:03:43;96848.94;;;-1.01;58.86
43298;BME280;28892;55.640;37.532;2023-03-09T05:06:11;96855.09;;;-0.94;58.43
43298;BME280;28892;55.640;37.532;2023-03-09T05:08:37;96856.41;;;-0.90;58.31
43298;BME280;28892;55.640;37.532;2023-03-09T05:11:05;96855.69;;;-0.75;57.83
43298;BME280;28892;55.640;37.532;2023-03-09T05:13:34;96855.22;;;-0.79;57.15
43298;BME280;28892;55.640;37.532;2023-03-09T05:16:14;96856.06;;;-0.87;57.27
43298;BME280;28892;55.640;37.532;2023-03-09T05:18:50;96860.75;;;-0.74;57.31
43298;BME280;28892;55.640;37.532;2023-03-09T05:21:21;96870.41;;;-0.51;57.20
43298;BME280;28892;55.640;37.532;2023-03-09T05:23:54;96860.28;;;-0.46;56.62
43298;BME280;28892;55.640;37.532;2023-03-09T05:26:23;96857.31;;;-0.34;56.82
43298;BME280;28892;55.640;37.532;2023-03-09T05:28:53;96869.13;;;-0.15;56.33
43298;BME280;28892;55.640;37.532;2023-03-09T05:31:19;96869.72;;;-0.05;56.08
43298;BME280;28892;55.640;37.532;2023-03-09T05:33:54;96870.50;;;-0.04;55.32
43298;BME280;28892;55.640;37.532;2023-03-09T05:36:25;96871.66;;;-0.38;55.08
43298;BME280;28892;55.640;37.532;2023-03-09T05:38:53;96870.19;;;-0.81;56.27
43298;BME280;28892;55.640;37.532;2023-03-09T05:41:20;96879.34;;;-0.45;56.79
43298;BME280;28892;55.640;37.532;2023-03-09T05:43:59;96875.34;;;-0.24;56.04
43298;BME280;28892;55.640;37.532;2023-03-09T05:46:28;96863.03;;;-0.07;55.79
43298;BME280;28892;55.640;37.532;2023-03-09T05:48:55;96879.03;;;-0.50;55.17
43298;BME280;28892;55.640;37.532;2023-03-09T05:51:21;96875.22;;;-0.31;55.54
43298;BME280;28892;55.640;37.532;2023-03-09T05:53:50;96887.34;;;0.08;55.03
43298;BME280;28892;55.640;37.532;2023-03-09T05:56:17;96888.88;;;0.26;54.80
43298;BME280;28892;55.640;37.532;2023-03-09T05:58:50;96875.16;;;-0.23;55.45
43298;BME280;28892;55.640;37.532;2023-03-09T06:01:26;96882.41;;;0.22;55.29
43298;BME280;28892;55.640;37.532;2023-03-09T06:04:02;96860.84;;;0.28;54.13
43298;BME280;28892;55.640;37.532;2023-03-09T06:06:33;96890.03;;;0.47;54.21
43298;BME280;28892;55.640;37.532;2023-03-09T06:09:03;96883.06;;;0.62;53.97
43298;BME280;28892;55.640;37.532;2023-03-09T06:11:33;96894.72;;;0.90;54.16
43298;BME280;28892;55.640;37.532;2023-03-09T06:13:59;96884.56;;;0.95;53.41
43298;BME280;28892;55.640;37.532;2023-03-09T06:16:34;96910.25;;;0.68;52.78
43298;BME280;28892;55.640;37.532;2023-03-09T06:19:04;96896.09;;;-0.08;55.40
43298;BME280;28892;55.640;37.532;2023-03-09T06:21:34;96902.25;;;0.69;54.89
43298;BME280;28892;55.640;37.532;2023-03-09T06:24:05;96896.63;;;0.96;53.35
43298;BME280;28892;55.640;37.532;2023-03-09T06:26:31;96899.63;;;1.23;52.73
43298;BME280;28892;55.640;37.532;2023-03-09T06:29:03;96914.50;;;1.52;52.48
43298;BME280;28892;55.640;37.532;2023-03-09T06:31:30;96938.28;;;1.58;51.25
43298;BME280;28892;55.640;37.532;2023-03-09T06:33:58;96894.22;;;1.70;51.25
43298;BME280;28892;55.640;37.532;2023-03-09T06:36:25;96922.13;;;1.24;51.39
43298;BME280;28892;55.640;37.532;2023-03-09T06:38:51;96922.22;;;1.01;50.73
43298;BME280;28892;55.640;37.532;2023-03-09T06:41:21;96930.38;;;0.59;52.97
43298;BME280;28892;55.640;37.532;2023-03-09T06:44:00;96901.94;;;0.88;51.59
43298;BME280;28892;55.640;37.532;2023-03-09T06:46:26;96941.09;;;1.41;51.54
43298;BME280;28892;55.640;37.532;2023-03-09T06:48:52;96954.78;;;1.58;50.44
43298;BME280;28892;55.640;37.532;2023-03-09T06:51:18;96944.41;;;1.65;49.89
43298;BME280;28892;55.640;37.532;2023-03-09T06:53:44;96943.41;;;1.36;50.22
43298;BME280;28892;55.640;37.532;2023-03-09T06:56:14;96936.19;;;1.53;49.55
43298;BME280;28892;55.640;37.532;2023-03-09T06:58:40;96943.34;;;1.59;50.12
43298;BME280;28892;55.640;37.532;2023-03-09T07:01:10;96936.84;;;1.25;49.02
43298;BME280;28892;55.640;37.532;2023-03-09T07:03:37;96959.25;;;1.49;49.87
43298;BME280;28892;55.640;37.532;2023-03-09T07:06:03;96971.44;;;1.72;49.10
43298;BME280;28892;55.640;37.532;2023-03-09T07:08:29;96959.88;;;1.97;48.80
43298;BME280;28892;55.640;37.532;2023-03-09T07:10:55;96967.91;;;0.96;47.49
43298;BME280;28892;55.640;37.532;2023-03-09T07:13:20;96977.94;;;0.69;49.70
43298;BME280;28892;55.640;37.532;2023-03-09T07:15:46;96957.56;;;0.65;50.33
43298;BME280;28892;55.640;37.532;2023-03-09T07:18:13;96960.97;;;1.27;49.72
43298;BME280;28892;55.640;37.532;2023-03-09T07:20:39;96976.03;;;1.70;49.61
43298;BME280;28892;55.640;37.532;2023-03-09T07:23:07;96973.78;;;1.97;48.26
43298;BME280;28892;55.640;37.532;2023-03-09T07:25:33;96972.44;;;2.23;47.21
43298;BME280;28892;55.640;37.532;2023-03-09T07:28:06;96979.13;;;2.26;46.31
43298;BME280;28892;55.640;37.532;2023-03-09T07:30:54;96957.75;;;2.22;46.67
43298;BME280;28892;55.640;37.532;2023-03-09T07:33:20;96972.69;;;1.91;47.18
43298;BME280;28892;55.640;37.532;2023-03-09T07:35:46;96976.03;;;1.70;46.64
43298;BME280;28892;55.640;37.532;2023-03-09T07:38:12;96982.31;;;1.61;47.66
43298;BME280;28892;55.640;37.532;2023-03-09T07:40:37;96970.34;;;1.97;47.33
43298;BME280;28892;55.640;37.532;2023-03-09T07:43:03;96952.69;;;2.20;46.54
43298;BME280;28892;55.640;37.532;2023-03-09T07:45:38;96971.97;;;2.34;46.55
43298;BME280;28892;55.640;37.532;2023-03-09T07:48:04;96976.41;;;2.34;46.21
43298;BME280;28892;55.640;37.532;2023-03-09T07:50:30;96986.59;;;0.85;46.08
43298;BME280;28892;55.640;37.532;2023-03-09T07:52:58;96981.34;;;0.47;48.55
43298;BME280;28892;55.640;37.532;2023-03-09T07:55:24;96981.63;;;0.29;46.92
43298;BME280;28892;55.640;37.532;2023-03-09T07:58:00;96979.25;;;0.89;48.21
43298;BME280;28892;55.640;37.532;2023-03-09T08:00:45;96980.19;;;0.49;48.42
43298;BME280;28892;55.640;37.532;2023-03-09T08:03:12;96990.41;;;0.97;47.87
43298;BME280;28892;55.640;37.532;2023-03-09T08:05:41;96973.31;;;0.25;48.01
43298;BME280;28892;55.640;37.532;2023-03-09T08:08:08;96975.56;;;0.60;47.92
43298;BME280;28892;55.640;37.532;2023-03-09T08:10:34;96986.91;;;0.44;47.72
43298;BME280;28892;55.640;37.532;2023-03-09T08:13:05;96985.88;;;1.00;48.25
43298;BME280;28892;55.640;37.532;2023-03-09T08:15:31;96959.53;;;1.39;46.17
43298;BME280;28892;55.640;37.532;2023-03-09T08:17:57;96986.13;;;1.43;45.60
43298;BME280;28892;55.640;37.532;2023-03-09T08:20:23;96973.09;;;1.20;45.21
43298;BME280;28892;55.640;37.532;2023-03-09T08:22:48;96975.31;;;1.46;46.31
43298;BME280;28892;55.640;37.532;2023-03-09T08:25:19;96992.69;;;1.69;46.30
43298;BME280;28892;55.640;37.532;2023-03-09T08:27:45;96976.09;;;1.92;46.43
43298;BME280;28892;55.640;37.532;2023-03-09T08:30:16;96973.78;;;1.97;45.06
43298;BME280;28892;55.640;37.532;2023-03-09T08:32:44;96974.44;;;2.21;44.61
43298;BME280;28892;55.640;37.532;2023-03-09T08:35:18;96975.47;;;1.90;44.12
43298;BME280;28892;55.640;37.532;2023-03-09T08:37:44;96970.06;;;1.31;45.16
43298;BME280;28892;55.640;37.532;2023-03-09T08:40:10;96979.28;;;1.04;45.42
43298;BME280;28892;55.640;37.532;2023-03-09T08:42:38;96974.50;;;1.61;46.70
43298;BME280;28892;55.640;37.532;2023-03-09T08:45:05;96974.31;;;2.07;45.39
43298;BME280;28892;55.640;37.532;2023-03-09T08:47:31;96971.06;;;1.90;45.54
43298;BME280;28892;55.640;37.532;2023-03-09T08:49:57;96969.63;;;1.88;44.73
43298;BME280;28892;55.640;37.532;2023-03-09T08:52:22;96970.84;;;1.17;44.42
43298;BME280;28892;55.640;37.532;2023-03-09T08:54:48;96977.91;;;1.31;46.07
43298;BME280;28892;55.640;37.532;2023-03-09T08:57:15;96977.91;;;1.31;45.47
43298;BME280;28892;55.640;37.532;2023-03-09T08:59:41;96967.81;;;1.73;45.96
43298;BME280;28892;55.640;37.532;2023-03-09T09:02:11;96962.31;;;1.98;44.80
43298;BME280;28892;55.640;37.532;2023-03-09T09:04:45;96964.03;;;1.16;44.15
43298;BME280;28892;55.640;37.532;2023-03-09T09:07:12;96970.22;;;1.30;45.49
43298;BME280;28892;55.640;37.532;2023-03-09T09:09:38;96976.03;;;1.70;44.72
43298;BME280;28892;55.640;37.532;2023-03-09T09:12:04;96965.72;;;1.99;44.84
43298;BME280;28892;55.640;37.532;2023-03-09T09:14:32;96959.38;;;1.03;43.63
43298;BME280;28892;55.640;37.532;2023-03-09T09:16:58;96977.41;;;0.74;45.81
43298;BME280;28892;55.640;37.532;2023-03-09T09:19:24;96962.84;;;1.33;45.11
43298;BME280;28892;55.640;37.532;2023-03-09T09:21:50;96951.50;;;1.71;44.25
43298;BME280;28892;55.640;37.532;2023-03-09T09:24:18;96967.19;;;1.71;44.30
43298;BME280;28892;55.640;37.532;2023-03-09T09:26:44;96981.06;;;1.42;44.12
43298;BME280;28892;55.640;37.532;2023-03-09T09:29:11;96966.41;;;1.56;44.54
43298;BME280;28892;55.640;37.532;2023-03-09T09:31:37;96959.06;;;1.96;44.47
43298;BME280;28892;55.640;37.532;2023-03-09T09:34:05;96966.78;;;2.04;43.59
43298;BME280;28892;55.640;37.532;2023-03-09T09:36:31;96936.78;;;2.00;43.92
43298;BME280;28892;55.640;37.532;2023-03-09T09:39:06;96962.53;;;2.18;44.34
43298;BME280;28892;55.640;37.532;2023-03-09T09:41:42;96974.94;;;1.64;44.43
43298;BME280;28892;55.640;37.532;2023-03-09T09:44:24;96984.22;;;0.52;47.71
43298;BME280;28892;55.640;37.532;2023-03-09T09:46:53;96985.00;;;1.22;47.59
43298;BME280;28892;55.640;37.532;2023-03-09T09:49:23;96978.91;;;1.45;46.17
43298;BME280;28892;55.640;37.532;2023-03-09T09:54:38;96969.47;;;1.06;47.98
43298;BME280;28892;55.640;37.532;2023-03-09T09:57:42;96965.00;;;1.15;49.05
43298;BME280;28892;55.640;37.532;2023-03-09T10:02:48;96962.09;;;1.63;48.55
43298;BME280;28892;55.640;37.532;2023-03-09T10:11:02;96974.78;;;1.51;49.58
43298;BME280;28892;55.640;37.532;2023-03-09T10:13:35;96969.59;;;1.28;51.23
43298;BME280;28892;55.640;37.532;2023-03-09T10:16:13;96959.28;;;1.64;50.37
43298;BME280;28892;55.640;37.532;2023-03-09T10:18:54;96977.97;;;0.61;52.80
43298;BME280;28892;55.640;37.532;2023-03-09T10:24:23;96963.00;;;0.78;53.27
43298;BME280;28892;55.640;37.532;2023-03-09T10:29:50;96953.78;;;1.44;52.51
43298;BME280;28892;55.640;37.532;2023-03-09T10:34:56;96955.75;;;1.42;53.14
43298;BME280;28892;55.640;37.532;2023-03-09T10:37:27;96935.78;;;0.03;57.74
43298;BME280;28892;55.640;37.532;2023-03-09T10:40:06;96951.13;;;0.29;57.52
43298;BME280;28892;55.640;37.532;2023-03-09T10:42:36;96934.97;;;0.57;57.35
43298;BME280;28892;55.640;37.532;2023-03-09T10:45:25;96933.06;;;0.27;57.58
43298;BME280;28892;55.640;37.532;2023-03-09T10:48:04;96949.38;;;-0.59;61.20
43298;BME280;28892;55.640;37.532;2023-03-09T10:50:36;96928.81;;;-0.37;60.67
43298;BME280;28892;55.640;37.532;2023-03-09T10:56:13;96929.97;;;-0.48;61.55
43298;BME280;28892;55.640;37.532;2023-03-09T10:58:40;96945.94;;;-0.51;61.96
43298;BME280;28892;55.640;37.532;2023-03-09T11:03:41;96936.53;;;-0.60;62.33
43298;BME280;28892;55.640;37.532;2023-03-09T11:06:27;96930.75;;;-1.12;64.33
43298;BME280;28892;55.640;37.532;2023-03-09T11:09:13;96936.91;;;-0.88;64.74
43298;BME280;28892;55.640;37.532;2023-03-09T11:11:45;96925.03;;;-0.34;63.43
43298;BME280;28892;55.640;37.532;2023-03-09T11:14:40;96923.69;;;0.10;63.07
43298;BME280;28892;55.640;37.532;2023-03-09T11:17:33;96924.84;;;0.39;62.08
43298;BME280;28892;55.640;37.532;2023-03-09T11:22:41;96925.34;;;0.34;61.00
43298;BME280;28892;55.640;37.532;2023-03-09T11:25:13;96923.53;;;0.58;61.55
43298;BME280;28892;55.640;37.532;2023-03-09T11:27:51;96916.50;;;0.82;60.91
43298;BME280;28892;55.640;37.532;2023-03-09T11:30:21;96914.47;;;0.69;61.04
43298;BME280;28892;55.640;37.532;2023-03-09T11:32:49;96930.22;;;0.99;59.97
43298;BME280;28892;55.640;37.532;2023-03-09T11:35:18;96927.09;;;1.19;59.63
43298;BME280;28892;55.640;37.532;2023-03-09T11:37:47;96929.22;;;1.00;59.10
43298;BME280;28892;55.640;37.532;2023-03-09T11:40:17;96919.75;;;0.14;61.81
43298;BME280;28892;55.640;37.532;2023-03-09T11:42:55;96919.25;;;0.42;62.51
43298;BME280;28892;55.640;37.532;2023-03-09T11:45:30;96926.03;;;-0.35;63.93
43298;BME280;28892;55.640;37.532;2023-03-09T11:48:06;96920.00;;;-0.36;64.26
43298;BME280;28892;55.640;37.532;2023-03-09T11:50:38;96931.34;;;-0.68;65.26
43298;BME280;28892;55.640;37.532;2023-03-09T11:53:23;96929.78;;;-0.94;67.43
43298;BME280;28892;55.640;37.532;2023-03-09T11:55:57;96929.25;;;-0.81;67.95
43298;BME280;28892;55.640;37.532;2023-03-09T11:58:29;96919.22;;;-0.45;67.41
43298;BME280;28892;55.640;37.532;2023-03-09T12:01:07;96915.03;;;-0.14;65.91
43298;BME280;28892;55.640;37.532;2023-03-09T12:03:41;96917.97;;;-0.57;66.50
43298;BME280;28892;55.640;37.532;2023-03-09T12:06:25;96931.41;;;-1.02;67.59
43298;BME280;28892;55.640;37.532;2023-03-09T12:08:55;96922.47;;;-0.99;68.20
43298;BME280;28892;55.640;37.532;2023-03-09T12:11:27;96926.53;;;-1.13;67.89
43298;BME280;28892;55.640;37.532;2023-03-09T12:19:16;96898.66;;;-0.31;66.14
43298;BME280;28892;55.640;37.532;2023-03-09T12:21:47;96908.91;;;0.02;65.27
43298;BME280;28892;55.640;37.532;2023-03-09T12:27:15;96901.75;;;-0.76;66.00
43298;BME280;28892;55.640;37.532;2023-03-09T12:29:54;96914.16;;;-0.86;67.71
43298;BME280;28892;55.640;37.532;2023-03-09T12:35:04;96897.28;;;-1.07;68.12
43298;BME280;28892;55.640;37.532;2023-03-09T12:40:55;96897.34;;;-0.75;67.92
43298;BME280;28892;55.640;37.532;2023-03-09T12:46:47;96912.31;;;-0.29;65.60
43298;BME280;28892;55.640;37.532;2023-03-09T12:53:57;96908.16;;;0.63;63.52
43298;BME280;28892;55.640;37.532;2023-03-09T12:56:46;96901.34;;;0.16;62.99
43298;BME280;28892;55.640;37.532;2023-03-09T13:03:05;96908.09;;;0.02;63.19
43298;BME280;28892;55.640;37.532;2023-03-09T13:06:21;96896.78;;;-0.14;65.06
43298;BME280;28892;55.640;37.532;2023-03-09T13:09:15;96911.53;;;0.25;64.58
43298;BME280;28892;55.640;37.532;2023-03-09T13:12:29;96895.63;;;0.59;62.15
43298;BME280;28892;55.640;37.532;2023-03-09T13:15:18;96904.44;;;0.81;61.17
43298;BME280;28892;55.640;37.532;2023-03-09T13:20:41;96885.47;;;0.87;59.83
43298;BME280;28892;55.640;37.532;2023-03-09T13:23:14;96877.63;;;1.02;59.75
43298;BME280;28892;55.640;37.532;2023-03-09T13:25:55;96880.00;;;1.27;59.41
43298;BME280;28892;55.640;37.532;2023-03-09T13:31:04;96871.25;;;1.50;58.55
43298;BME280;28892;55.640;37.532;2023-03-09T13:33:34;96875.31;;;1.37;58.49
43298;BME280;28892;55.640;37.532;2023-03-09T13:36:35;96882.97;;;1.39;58.55
43298;BME280;28892;55.640;37.532;2023-03-09T13:39:03;96875.94;;;1.09;59.82
43298;BME280;28892;55.640;37.532;2023-03-09T13:41:32;96872.88;;;1.06;59.42
43298;BME280;28892;55.640;37.532;2023-03-09T13:43:59;96880.13;;;0.80;59.85
43298;BME280;28892;55.640;37.532;2023-03-09T13:46:33;96862.03;;;0.64;59.77
43298;BME280;28892;55.640;37.532;2023-03-09T13:49:18;96874.06;;;0.65;60.54
43298;BME280;28892;55.640;37.532;2023-03-09T13:51:48;96865.41;;;0.49;60.38
43298;BME280;28892;55.640;37.532;2023-03-09T14:02:32;96854.72;;;0.59;61.15
43298;BME280;28892;55.640;37.532;2023-03-09T14:05:25;96863.41;;;1.05;60.04
43298;BME280;28892;55.640;37.532;2023-03-09T14:07:59;96861.53;;;0.83;59.36
43298;BME280;28892;55.640;37.532;2023-03-09T14:10:36;96873.44;;;0.63;59.70
43298;BME280;28892;55.640;37.532;2023-03-09T14:13:15;96860.22;;;0.26;60.69
43298;BME280;28892;55.640;37.532;2023-03-09T14:15:46;96861.13;;;0.33;60.85
43298;BME280;28892;55.640;37.532;2023-03-09T14:18:38;96866.94;;;0.20;61.84
43298;BME280;28892;55.640;37.532;2023-03-09T14:23:43;96856.19;;;-0.08;62.01
43298;BME280;28892;55.640;37.532;2023-03-09T14:26:10;96863.91;;;-0.55;63.68
43298;BME280;28892;55.640;37.532;2023-03-09T14:28:39;96864.88;;;-0.56;64.37
43298;BME280;28892;55.640;37.532;2023-03-09T14:31:22;96866.13;;;-0.44;64.69
43298;BME280;28892;55.640;37.532;2023-03-09T14:33:59;96856.91;;;-0.23;64.18
43298;BME280;28892;55.640;37.532;2023-03-09T14:36:28;96857.91;;;0.08;63.04
43298;BME280;28892;55.640;37.532;2023-03-09T14:44:42;96849.03;;;0.55;60.79
43298;BME280;28892;55.640;37.532;2023-03-09T14:47:34;96859.72;;;-0.01;62.61
43298;BME280;28892;55.640;37.532;2023-03-09T14:50:05;96849.19;;;0.16;62.42
43298;BME280;28892;55.640;37.532;2023-03-09T14:52:32;96828.75;;;0.27;61.63